createdAt,value
2019-02-23T00:02:28.607Z,2.43
2019-02-23T00:04:59.764Z,2.41
2019-02-23T00:07:31.063Z,2.39
2019-02-23T00:10:02.216Z,2.37
2019-02-23T00:12:35.194Z,2.36
2019-02-23T00:15:06.929Z,2.34
2019-02-23T00:17:38.252Z,2.34
2019-02-23T00:20:09.419Z,2.31
2019-02-23T00:22:40.710Z,2.29
2019-02-23T00:25:11.882Z,2.26
2019-02-23T00:27:43.124Z,2.26
2019-02-23T00:30:14.325Z,2.23
2019-02-23T00:32:45.593Z,2.20
2019-02-23T00:35:16.811Z,2.21
2019-02-23T00:37:47.993Z,2.19
2019-02-23T00:40:19.143Z,2.16
2019-02-23T00:42:50.364Z,2.14
2019-02-23T00:45:21.704Z,2.12
2019-02-23T00:47:52.957Z,2.07
2019-02-23T00:50:24.241Z,2.02
2019-02-23T00:52:55.372Z,1.97
2019-02-23T00:55:26.643Z,1.94
2019-02-23T00:57:58.000Z,1.90
2019-02-23T01:00:29.155Z,1.87
2019-02-23T01:03:00.342Z,1.86
2019-02-23T01:05:31.569Z,1.84
2019-02-23T01:08:02.906Z,1.83
2019-02-23T01:10:34.156Z,1.83
2019-02-23T01:13:05.453Z,1.82
2019-02-23T01:15:36.695Z,1.81
2019-02-23T01:18:07.921Z,1.79
2019-02-23T01:20:39.152Z,1.78
2019-02-23T01:23:10.454Z,1.78
2019-02-23T01:25:41.601Z,1.75
2019-02-23T01:28:12.916Z,1.73
2019-02-23T01:30:44.128Z,1.71
2019-02-23T01:33:15.381Z,1.69
2019-02-23T01:35:46.569Z,1.70
2019-02-23T01:38:17.812Z,1.68
2019-02-23T01:40:49.000Z,1.67
2019-02-23T01:43:20.255Z,1.66
2019-02-23T01:45:51.485Z,1.64
2019-02-23T01:48:22.648Z,1.64
2019-02-23T01:50:53.876Z,1.64
2019-02-23T01:53:25.025Z,1.62
2019-02-23T01:55:56.263Z,1.61
2019-02-23T01:58:27.461Z,1.58
2019-02-23T02:00:58.663Z,1.57
2019-02-23T02:03:29.810Z,1.58
2019-02-23T02:06:01.174Z,1.56
2019-02-23T02:08:32.780Z,1.55
2019-02-23T02:11:03.969Z,1.53
2019-02-23T02:13:35.212Z,1.52
2019-02-23T02:16:06.441Z,1.50
2019-02-23T02:18:37.677Z,1.51
2019-02-23T02:21:08.929Z,1.49
2019-02-23T02:23:40.102Z,1.48
2019-02-23T02:26:11.666Z,1.47
2019-02-23T02:28:42.848Z,1.46
2019-02-23T02:31:14.019Z,1.45
2019-02-23T02:34:11.545Z,1.43
2019-02-23T02:36:42.704Z,1.42
2019-02-23T02:39:15.079Z,1.40
2019-02-23T02:41:46.350Z,1.37
2019-02-23T02:44:17.571Z,1.32
2019-02-23T02:46:48.765Z,1.28
2019-02-23T02:49:19.970Z,1.27
2019-02-23T02:51:51.170Z,1.26
2019-02-23T02:54:22.326Z,1.24
2019-02-23T02:56:53.546Z,1.24
2019-02-23T02:59:25.819Z,1.23
2019-02-23T03:01:58.897Z,1.23
2019-02-23T03:04:30.001Z,1.22
2019-02-23T03:07:01.173Z,1.21
2019-02-23T03:09:32.400Z,1.18
2019-02-23T03:12:03.588Z,1.17
2019-02-23T03:14:34.821Z,1.15
2019-02-23T03:17:05.945Z,1.16
2019-02-23T03:19:37.115Z,1.13
2019-02-23T03:22:08.299Z,1.11
2019-02-23T03:24:39.610Z,1.09
2019-02-23T03:27:10.821Z,1.09
2019-02-23T03:29:42.060Z,1.08
2019-02-23T03:32:13.250Z,1.07
2019-02-23T03:34:44.477Z,1.04
2019-02-23T03:37:15.675Z,1.05
2019-02-23T03:39:46.777Z,1.02
2019-02-23T03:42:18.349Z,1.01
2019-02-23T03:44:49.512Z,1.01
2019-02-23T03:47:20.757Z,1.00
2019-02-23T03:49:52.017Z,0.99
2019-02-23T03:52:23.239Z,0.98
2019-02-23T03:54:54.434Z,0.99
2019-02-23T03:57:25.692Z,0.96
2019-02-23T03:59:56.937Z,0.95
2019-02-23T04:02:28.068Z,0.94
2019-02-23T04:04:59.316Z,0.92
2019-02-23T04:07:30.633Z,0.92
2019-02-23T04:10:01.817Z,0.92
2019-02-23T04:12:34.351Z,0.91
2019-02-23T04:15:05.574Z,0.89
2019-02-23T04:17:36.776Z,0.89
2019-02-23T04:20:07.899Z,0.88
2019-02-23T04:22:39.069Z,0.87
2019-02-23T04:25:10.200Z,0.86
2019-02-23T04:27:44.817Z,0.86
2019-02-23T04:30:15.964Z,0.85
2019-02-23T04:32:47.119Z,0.85
2019-02-23T04:35:18.361Z,0.84
2019-02-23T04:37:49.536Z,0.84
2019-02-23T04:40:20.788Z,0.83
2019-02-23T04:42:51.936Z,0.81
2019-02-23T04:45:23.223Z,0.80
2019-02-23T04:47:54.452Z,0.79
2019-02-23T04:50:25.643Z,0.77
2019-02-23T04:52:56.858Z,0.77
2019-02-23T04:55:28.130Z,0.76
2019-02-23T04:57:59.348Z,0.74
2019-02-23T05:00:30.537Z,0.74
2019-02-23T05:03:01.702Z,0.73
2019-02-23T05:05:33.150Z,0.73
2019-02-23T05:08:04.313Z,0.73
2019-02-23T05:10:35.483Z,0.71
2019-02-23T05:13:06.674Z,0.71
2019-02-23T05:15:37.990Z,0.70
2019-02-23T05:18:09.170Z,0.68
2019-02-23T05:20:40.377Z,0.67
2019-02-23T05:23:11.601Z,0.65
2019-02-23T05:25:42.801Z,0.64
2019-02-23T05:28:14.005Z,0.63
2019-02-23T05:30:45.247Z,0.61
2019-02-23T05:33:16.414Z,0.61
2019-02-23T05:35:49.738Z,0.59
2019-02-23T05:38:21.008Z,0.58
2019-02-23T05:40:52.190Z,0.56
2019-02-23T05:43:23.465Z,0.55
2019-02-23T05:45:54.765Z,0.52
2019-02-23T05:48:26.022Z,0.49
2019-02-23T05:50:57.425Z,0.48
2019-02-23T05:53:28.642Z,0.47
2019-02-23T05:55:59.943Z,0.45
2019-02-23T05:58:31.165Z,0.44
2019-02-23T06:01:02.390Z,0.44
2019-02-23T06:03:34.569Z,0.43
2019-02-23T06:06:05.845Z,0.43
2019-02-23T06:08:37.172Z,0.42
2019-02-23T06:11:08.446Z,0.43
2019-02-23T06:13:39.690Z,0.42
2019-02-23T06:16:10.894Z,0.42
2019-02-23T06:18:42.097Z,0.40
2019-02-23T06:21:13.389Z,0.39
2019-02-23T06:23:44.657Z,0.39
2019-02-23T06:26:15.828Z,0.38
2019-02-23T06:28:47.004Z,0.39
2019-02-23T06:31:18.270Z,0.36
2019-02-23T06:33:49.451Z,0.34
2019-02-23T06:36:20.719Z,0.34
2019-02-23T06:38:52.906Z,0.34
2019-02-23T06:41:25.312Z,0.34
2019-02-23T06:43:56.751Z,0.32
2019-02-23T06:46:27.983Z,0.32
2019-02-23T06:48:59.198Z,0.33
2019-02-23T06:51:30.469Z,0.33
2019-02-23T06:54:01.676Z,0.33
2019-02-23T06:56:32.900Z,0.33
2019-02-23T06:59:04.118Z,0.35
2019-02-23T07:01:35.325Z,0.36
2019-02-23T07:04:06.588Z,0.39
2019-02-23T07:06:37.872Z,0.42
2019-02-23T07:09:09.111Z,0.42
2019-02-23T07:11:40.347Z,0.43
2019-02-23T07:14:12.314Z,0.44
2019-02-23T07:16:43.807Z,0.46
2019-02-23T07:19:15.036Z,0.49
2019-02-23T07:21:46.235Z,0.52
2019-02-23T07:24:17.551Z,0.55
2019-02-23T07:26:48.792Z,0.57
2019-02-23T07:29:20.051Z,0.60
2019-02-23T07:31:51.830Z,0.62
2019-02-23T07:34:23.145Z,0.65
2019-02-23T07:36:54.513Z,0.68
2019-02-23T07:39:25.760Z,0.71
2019-02-23T07:41:56.940Z,0.76
2019-02-23T07:44:29.882Z,0.80
2019-02-23T07:47:01.696Z,0.85
2019-02-23T07:49:34.858Z,0.88
2019-02-23T07:52:06.849Z,0.91
2019-02-23T07:54:38.102Z,0.96
2019-02-23T07:57:10.250Z,0.96
2019-02-23T07:59:42.623Z,1.00
2019-02-23T08:02:13.912Z,1.04
2019-02-23T08:04:45.220Z,1.08
2019-02-23T08:07:16.420Z,1.12
2019-02-23T08:09:47.606Z,1.14
2019-02-23T08:12:18.945Z,1.19
2019-02-23T08:14:50.127Z,1.22
2019-02-23T08:17:21.309Z,1.24
2019-02-23T08:19:52.947Z,1.27
2019-02-23T08:22:24.141Z,1.31
2019-02-23T08:24:55.380Z,1.36
2019-02-23T08:27:26.655Z,1.41
2019-02-23T08:29:57.878Z,1.46
2019-02-23T08:32:29.071Z,1.52
2019-02-23T08:35:00.422Z,1.59
2019-02-23T08:37:31.617Z,1.65
2019-02-23T08:40:03.991Z,1.73
2019-02-23T08:42:35.245Z,1.79
2019-02-23T08:45:07.273Z,1.85
2019-02-23T08:47:38.448Z,1.90
2019-02-23T08:50:11.100Z,1.96
2019-02-23T08:52:49.365Z,2.02
2019-02-23T08:55:15.250Z,2.04
2019-02-23T08:57:46.445Z,2.07
2019-02-23T09:00:17.708Z,2.08
2019-02-23T09:02:49.112Z,2.11
2019-02-23T09:05:20.247Z,2.16
2019-02-23T09:07:52.527Z,2.26
2019-02-23T09:10:24.631Z,2.33
2019-02-23T09:12:55.948Z,2.38
2019-02-23T09:15:27.143Z,2.43
2019-02-23T09:17:58.356Z,2.48
2019-02-23T09:20:29.799Z,2.53
2019-02-23T09:23:01.882Z,2.58
2019-02-23T09:25:33.423Z,2.64
2019-02-23T09:28:04.670Z,2.69
2019-02-23T09:30:35.874Z,2.75
2019-02-23T09:33:07.073Z,2.81
2019-02-23T09:35:38.230Z,2.87
2019-02-23T09:38:09.522Z,2.93
2019-02-23T09:40:41.616Z,2.98
2019-02-23T09:43:13.170Z,3.04
2019-02-23T09:45:44.357Z,3.05
2019-02-23T09:48:15.659Z,3.17
2019-02-23T09:50:46.959Z,3.23
2019-02-23T09:53:18.319Z,3.30
2019-02-23T09:55:49.554Z,3.36
2019-02-23T09:58:20.782Z,3.47
2019-02-23T10:00:52.091Z,3.47
2019-02-23T10:03:23.526Z,3.51
2019-02-23T10:05:54.773Z,3.59
2019-02-23T10:08:25.950Z,3.66
2019-02-23T10:10:57.706Z,3.74
2019-02-23T10:13:29.086Z,3.79
2019-02-23T10:16:00.577Z,3.85
2019-02-23T10:18:31.853Z,3.94
2019-02-23T10:21:03.025Z,4.02
2019-02-23T10:23:35.226Z,4.09
2019-02-23T10:26:06.421Z,4.16
2019-02-23T10:28:37.752Z,4.23
2019-02-23T10:31:09.042Z,4.26
2019-02-23T10:33:47.431Z,4.33
2019-02-23T10:36:13.263Z,4.39
2019-02-23T10:38:44.465Z,4.45
2019-02-23T10:41:16.214Z,4.47
2019-02-23T10:43:47.878Z,4.57
2019-02-23T10:46:19.205Z,4.57
2019-02-23T10:48:50.396Z,4.62
2019-02-23T10:51:21.587Z,4.67
2019-02-23T10:53:52.761Z,4.74
2019-02-23T10:56:24.015Z,4.82
2019-02-23T10:58:55.325Z,4.93
2019-02-23T11:01:26.915Z,5.03
2019-02-23T11:03:58.162Z,5.14
2019-02-23T11:06:29.341Z,5.25
2019-02-23T11:09:00.753Z,5.35
2019-02-23T11:11:34.394Z,5.45
2019-02-23T11:14:05.708Z,5.54
2019-02-23T11:16:36.910Z,5.61
2019-02-23T11:19:08.100Z,5.67
2019-02-23T11:21:39.282Z,5.72
2019-02-23T11:24:10.474Z,5.78
2019-02-23T11:26:41.680Z,5.83
2019-02-23T11:29:12.863Z,5.88
2019-02-23T11:31:44.089Z,5.94
2019-02-23T11:34:15.229Z,5.98
2019-02-23T11:36:46.442Z,6.03
2019-02-23T11:39:17.639Z,6.09
2019-02-23T11:41:48.864Z,6.14
2019-02-23T11:44:20.100Z,6.22
2019-02-23T11:47:00.394Z,6.29
2019-02-23T11:49:25.343Z,6.35
2019-02-23T11:51:56.540Z,6.41
2019-02-23T11:54:27.760Z,6.47
2019-02-23T11:56:58.977Z,6.53
2019-02-23T11:59:30.263Z,6.60
2019-02-23T12:02:01.466Z,6.68
2019-02-23T12:04:32.608Z,6.76
2019-02-23T12:07:03.806Z,6.83
2019-02-23T12:09:34.980Z,6.91
2019-02-23T12:12:06.152Z,6.99
2019-02-23T12:14:37.330Z,7.07
2019-02-23T12:17:08.561Z,7.16
2019-02-23T12:19:39.745Z,7.25
2019-02-23T12:22:12.544Z,7.37
2019-02-23T12:24:43.975Z,7.49
2019-02-23T12:27:15.180Z,7.59
2019-02-23T12:29:46.350Z,7.70
2019-02-23T12:32:17.682Z,7.81
2019-02-23T12:34:49.047Z,7.92
2019-02-23T12:37:20.222Z,8.05
2019-02-23T12:39:51.418Z,8.17
2019-02-23T12:42:22.606Z,8.31
2019-02-23T12:44:53.786Z,8.42
2019-02-23T12:47:24.952Z,8.54
2019-02-23T12:49:56.141Z,8.66
2019-02-23T12:52:27.312Z,8.81
2019-02-23T12:54:58.586Z,8.93
2019-02-23T12:57:29.766Z,9.04
2019-02-23T13:00:00.978Z,9.16
2019-02-23T13:02:33.955Z,9.28
2019-02-23T13:05:05.392Z,9.42
2019-02-23T13:07:36.544Z,9.63
2019-02-23T13:10:11.307Z,9.88
2019-02-23T13:13:03.357Z,10.25
2019-02-23T13:15:57.488Z,10.69
2019-02-23T13:18:50.806Z,11.20
2019-02-23T13:22:02.377Z,11.77
2019-02-23T13:24:55.837Z,12.40
2019-02-23T13:27:52.197Z,13.03
2019-02-23T13:30:52.303Z,13.58
2019-02-23T13:34:02.012Z,13.96
2019-02-23T13:37:05.884Z,14.29
2019-02-23T13:40:36.382Z,14.53
2019-02-23T13:43:43.543Z,14.79
2019-02-23T13:46:38.052Z,14.86
2019-02-23T13:49:48.761Z,14.84
2019-02-23T13:53:15.966Z,14.76
2019-02-23T13:56:14.536Z,14.76
2019-02-23T13:59:25.412Z,14.74
2019-02-23T14:02:59.085Z,14.91
2019-02-23T14:05:45.371Z,15.08
2019-02-23T14:08:51.288Z,15.42
2019-02-23T14:11:47.658Z,15.68
2019-02-23T14:14:43.160Z,15.98
2019-02-23T14:17:51.267Z,16.29
2019-02-23T14:20:42.793Z,16.52
2019-02-23T14:23:53.223Z,16.80
2019-02-23T14:26:38.922Z,17.16
2019-02-23T14:29:54.006Z,17.53
2019-02-23T14:33:09.552Z,17.76
2019-02-23T14:36:14.772Z,17.83
2019-02-23T14:39:48.205Z,17.89
2019-02-23T14:42:44.932Z,17.96
2019-02-23T14:45:46.947Z,17.98
2019-02-23T14:48:41.286Z,17.97
2019-02-23T14:52:15.294Z,17.84
2019-02-23T14:55:17.141Z,17.68
2019-02-23T14:58:28.811Z,17.54
2019-02-23T15:01:32.197Z,17.36
2019-02-23T15:04:49.899Z,17.10
2019-02-23T15:08:16.708Z,16.83
2019-02-23T15:11:35.336Z,16.52
2019-02-23T15:14:44.673Z,16.14
2019-02-23T15:17:51.445Z,15.75
2019-02-23T15:21:16.657Z,15.42
2019-02-23T15:24:07.976Z,15.06
2019-02-23T15:27:17.234Z,14.72
2019-02-23T15:30:18.781Z,14.45
2019-02-23T15:33:33.877Z,14.12
2019-02-23T15:36:45.422Z,13.86
2019-02-23T15:40:05.524Z,13.57
2019-02-23T15:42:55.136Z,13.34
2019-02-23T15:45:59.338Z,13.08
2019-02-23T15:48:59.889Z,12.86
2019-02-23T15:51:31.534Z,12.61
2019-02-23T15:54:02.906Z,12.36
2019-02-23T15:56:34.126Z,12.17
2019-02-23T15:59:06.119Z,12.00
2019-02-23T16:01:38.140Z,11.82
2019-02-23T16:04:09.415Z,11.66
2019-02-23T16:06:40.854Z,11.49
2019-02-23T16:09:12.134Z,11.32
2019-02-23T16:11:45.239Z,11.15
2019-02-23T16:14:16.385Z,10.99
2019-02-23T16:16:47.951Z,10.83
2019-02-23T16:19:21.142Z,10.67
2019-02-23T16:21:53.049Z,10.51
2019-02-23T16:24:24.673Z,10.38
2019-02-23T16:26:56.188Z,10.27
2019-02-23T16:29:27.576Z,10.13
2019-02-23T16:31:58.788Z,9.99
2019-02-23T16:34:30.019Z,9.86
2019-02-23T16:37:01.178Z,9.72
2019-02-23T16:39:33.368Z,9.59
2019-02-23T16:42:04.625Z,9.48
2019-02-23T16:44:35.936Z,9.36
2019-02-23T16:47:07.186Z,9.23
2019-02-23T16:49:38.574Z,9.10
2019-02-23T16:52:09.850Z,8.97
2019-02-23T16:54:41.103Z,8.81
2019-02-23T16:57:12.348Z,8.69
2019-02-23T16:59:44.663Z,8.56
2019-02-23T17:02:15.842Z,8.46
2019-02-23T17:04:53.605Z,8.37
2019-02-23T17:07:20.047Z,8.27
2019-02-23T17:09:51.228Z,8.16
2019-02-23T17:12:22.496Z,8.08
2019-02-23T17:14:54.020Z,7.98
2019-02-23T17:17:25.211Z,7.87
2019-02-23T17:19:56.644Z,7.77
2019-02-23T17:22:28.118Z,7.68
2019-02-23T17:24:59.329Z,7.59
2019-02-23T17:27:36.857Z,7.50
2019-02-23T17:30:04.626Z,7.43
2019-02-23T17:32:35.935Z,7.34
2019-02-23T17:35:07.222Z,7.27
2019-02-23T17:37:38.462Z,7.19
2019-02-23T17:40:09.910Z,7.14
2019-02-23T17:42:41.130Z,7.09
2019-02-23T17:45:13.356Z,7.01
2019-02-23T17:47:44.653Z,6.96
2019-02-23T17:50:15.849Z,6.89
2019-02-23T17:52:47.051Z,6.83
2019-02-23T17:55:18.325Z,6.75
2019-02-23T17:57:49.612Z,6.68
2019-02-23T18:00:23.626Z,6.61
2019-02-23T18:02:55.076Z,6.54
2019-02-23T18:05:26.235Z,6.47
2019-02-23T18:07:57.580Z,6.39
2019-02-23T18:10:28.733Z,6.33
2019-02-23T18:13:00.026Z,6.26
2019-02-23T18:15:31.267Z,6.22
2019-02-23T18:18:02.617Z,6.15
2019-02-23T18:20:34.049Z,6.11
2019-02-23T18:23:05.536Z,6.04
2019-02-23T18:25:36.914Z,5.99
2019-02-23T18:28:08.367Z,5.92
2019-02-23T18:30:39.550Z,5.88
2019-02-23T18:33:10.917Z,5.83
2019-02-23T18:35:42.229Z,5.77
2019-02-23T18:38:13.435Z,5.71
2019-02-23T18:40:44.813Z,5.66
2019-02-23T18:43:16.159Z,5.62
2019-02-23T18:45:47.786Z,5.58
2019-02-23T18:48:19.367Z,5.54
2019-02-23T18:50:50.720Z,5.50
2019-02-23T18:53:22.031Z,5.47
2019-02-23T18:55:53.427Z,5.41
2019-02-23T18:58:24.659Z,5.37
2019-02-23T19:00:55.898Z,5.33
2019-02-23T19:03:27.156Z,5.28
2019-02-23T19:05:58.412Z,5.24
2019-02-23T19:08:29.733Z,5.21
2019-02-23T19:11:01.031Z,5.18
2019-02-23T19:13:33.296Z,5.14
2019-02-23T19:16:05.653Z,5.11
2019-02-23T19:18:36.918Z,5.08
2019-02-23T19:21:08.146Z,5.06
2019-02-23T19:23:39.350Z,5.02
2019-02-23T19:26:10.720Z,4.99
2019-02-23T19:28:43.361Z,4.95
2019-02-23T19:31:14.901Z,4.93
2019-02-23T19:33:47.743Z,4.90
2019-02-23T19:36:20.222Z,4.87
2019-02-23T19:38:51.454Z,4.85
2019-02-23T19:41:22.725Z,4.82
2019-02-23T19:43:54.095Z,4.79
2019-02-23T19:46:25.596Z,4.76
2019-02-23T19:48:56.789Z,4.74
2019-02-23T19:51:27.985Z,4.71
2019-02-23T19:53:59.174Z,4.66
2019-02-23T19:56:31.831Z,4.64
2019-02-23T19:59:03.314Z,4.62
2019-02-23T20:01:35.685Z,4.58
2019-02-23T20:04:06.965Z,4.56
2019-02-23T20:06:38.232Z,4.51
2019-02-23T20:09:09.409Z,4.48
2019-02-23T20:11:42.789Z,4.44
2019-02-23T20:14:14.180Z,4.42
2019-02-23T20:16:45.370Z,4.36
2019-02-23T20:19:16.680Z,4.36
2019-02-23T20:21:47.921Z,4.34
2019-02-23T20:24:19.172Z,4.32
2019-02-23T20:26:55.638Z,4.30
2019-02-23T20:29:24.509Z,4.27
2019-02-23T20:31:55.799Z,4.21
2019-02-23T20:34:27.090Z,4.21
2019-02-23T20:36:58.410Z,4.18
2019-02-23T20:39:29.673Z,4.13
2019-02-23T20:42:00.856Z,4.10
2019-02-23T20:44:32.299Z,4.08
2019-02-23T20:47:03.431Z,4.05
2019-02-23T20:49:35.756Z,4.02
2019-02-23T20:52:08.099Z,4.00
2019-02-23T20:54:39.518Z,3.97
2019-02-23T20:57:14.048Z,3.95
2019-02-23T20:59:43.615Z,3.93
2019-02-23T21:02:14.832Z,3.90
2019-02-23T21:04:46.025Z,3.88
2019-02-23T21:07:17.248Z,3.86
2019-02-23T21:09:48.432Z,3.84
2019-02-23T21:12:21.400Z,3.82
2019-02-23T21:14:53.278Z,3.79
2019-02-23T21:17:24.470Z,3.74
2019-02-23T21:19:55.738Z,3.76
2019-02-23T21:22:26.931Z,3.75
2019-02-23T21:24:58.207Z,3.73
2019-02-23T21:27:29.672Z,3.71
2019-02-23T21:30:01.068Z,3.67
2019-02-23T21:32:32.554Z,3.67
2019-02-23T21:35:04.034Z,3.63
2019-02-23T21:37:36.855Z,3.63
2019-02-23T21:40:08.236Z,3.59
2019-02-23T21:42:40.751Z,3.60
2019-02-23T21:45:12.065Z,3.59
2019-02-23T21:47:43.462Z,3.55
2019-02-23T21:50:14.700Z,3.52
2019-02-23T21:52:47.441Z,3.49
2019-02-23T21:55:19.005Z,3.49
2019-02-23T21:57:50.388Z,3.48
2019-02-23T22:00:21.591Z,3.47
2019-02-23T22:02:53.738Z,3.40
2019-02-23T22:05:25.704Z,3.40
2019-02-23T22:07:58.006Z,3.38
2019-02-23T22:10:30.423Z,3.38
2019-02-23T22:13:04.090Z,3.41
2019-02-23T22:15:35.525Z,3.39
2019-02-23T22:18:06.659Z,3.37
2019-02-23T22:20:37.803Z,3.38
2019-02-23T22:23:09.107Z,3.36
2019-02-23T22:25:40.284Z,3.35
2019-02-23T22:28:11.453Z,3.32
2019-02-23T22:30:42.635Z,3.30
2019-02-23T22:33:14.253Z,3.27
2019-02-23T22:35:45.507Z,3.25
2019-02-23T22:38:16.785Z,3.24
2019-02-23T22:40:48.108Z,3.22
2019-02-23T22:43:19.345Z,3.21
2019-02-23T22:45:53.163Z,3.19
2019-02-23T22:48:25.479Z,3.18
2019-02-23T22:50:56.703Z,3.16
2019-02-23T22:53:27.999Z,3.11
2019-02-23T22:55:59.274Z,3.09
2019-02-23T22:58:30.509Z,3.07
2019-02-23T23:01:02.884Z,3.05
2019-02-23T23:03:36.073Z,3.03
2019-02-23T23:06:07.376Z,3.03
2019-02-23T23:08:38.643Z,3.01
2019-02-23T23:11:10.043Z,2.95
2019-02-23T23:13:41.325Z,2.95
2019-02-23T23:16:12.625Z,2.99
2019-02-23T23:18:43.902Z,2.95
2019-02-23T23:21:15.223Z,2.95
2019-02-23T23:23:46.463Z,2.94
2019-02-23T23:26:17.778Z,2.91
2019-02-23T23:28:49.044Z,2.89
2019-02-23T23:31:20.225Z,2.85
2019-02-23T23:33:51.554Z,2.84
2019-02-23T23:36:22.714Z,2.82
2019-02-23T23:38:53.899Z,2.80
2019-02-23T23:41:25.190Z,2.77
2019-02-23T23:43:56.303Z,2.74
2019-02-23T23:46:27.528Z,2.73
2019-02-23T23:48:58.793Z,2.70
2019-02-23T23:51:30.008Z,2.68
2019-02-23T23:54:01.216Z,2.65
2019-02-23T23:56:32.491Z,2.65
2019-02-23T23:59:03.625Z,2.62
